sensor_id;sensor_type;location;lat;lon;timestamp;temperature;humidity
13744;DHT22;6943;52.368;9.966;2023-11-18T16:07:33;7.50;1.00
13744;DHT22;6943;52.368;9.966;2023-11-18T16:09:59;7.10;99.90
13744;DHT22;6943;52.368;9.966;2023-11-18T16:12:26;6.90;1.00
13744;DHT22;6943;52.368;9.966;2023-11-18T16:14:55;7.10;1.00
13744;DHT22;6943;52.368;9.966;2023-11-18T16:17:21;6.70;1.00
13744;DHT22;6943;52.368;9.966;2023-11-18T16:19:47;6.90;1.00
13744;DHT22;6943;52.368;9.966;2023-11-18T16:22:12;6.80;1.00
13744;DHT22;6943;52.368;9.966;2023-11-18T16:24:37;6.70;85.80
13744;DHT22;6943;52.368;9.966;2023-11-18T16:27:03;6.70;73.50
13744;DHT22;6943;52.368;9.966;2023-11-18T16:29:29;6.70;99.90
13744;DHT22;6943;52.368;9.966;2023-11-18T16:31:56;6.60;99.90
13744;DHT22;6943;52.368;9.966;2023-11-18T16:34:21;6.50;99.90
13744;DHT22;6943;52.368;9.966;2023-11-18T16:36:47;6.30;99.90
13744;DHT22;6943;52.368;9.966;2023-11-18T16:39:15;6.50;99.90
13744;DHT22;6943;52.368;9.966;2023-11-18T16:41:40;6.40;99.90
13744;DHT22;6943;52.368;9.966;2023-11-18T16:44:06;6.30;99.90
13744;DHT22;6943;52.368;9.966;2023-11-18T16:46:38;6.30;99.90
13744;DHT22;6943;52.368;9.966;2023-11-18T16:49:06;6.30;99.90
13744;DHT22;6943;52.368;9.966;2023-11-18T16:51:31;6.10;99.90
13744;DHT22;6943;52.368;9.966;2023-11-18T16:53:56;6.00;99.90
13744;DHT22;6943;52.368;9.966;2023-11-18T16:56:22;6.00;99.90
13744;DHT22;6943;52.368;9.966;2023-11-18T16:58:47;6.10;99.90
13744;DHT22;6943;52.368;9.966;2023-11-18T17:01:13;6.20;99.90
13744;DHT22;6943;52.368;9.966;2023-11-18T17:03:39;6.00;99.90
13744;DHT22;6943;52.368;9.966;2023-11-18T17:06:04;6.20;99.90
13744;DHT22;6943;52.368;9.966;2023-11-18T17:08:30;6.10;99.90
13744;DHT22;6943;52.368;9.966;2023-11-18T17:10:56;6.10;99.90
13744;DHT22;6943;52.368;9.966;2023-11-18T17:13:21;6.00;99.90
13744;DHT22;6943;52.368;9.966;2023-11-18T17:15:47;6.00;99.90
13744;DHT22;6943;52.368;9.966;2023-11-18T17:18:12;6.10;99.90
13744;DHT22;6943;52.368;9.966;2023-11-18T17:20:39;6.10;99.90
13744;DHT22;6943;52.368;9.966;2023-11-18T17:23:04;6.00;99.90
13744;DHT22;6943;52.368;9.966;2023-11-18T17:25:30;6.10;99.90
13744;DHT22;6943;52.368;9.966;2023-11-18T17:27:55;6.00;99.90
13744;DHT22;6943;52.368;9.966;2023-11-18T17:30:21;6.10;99.90
13744;DHT22;6943;52.368;9.966;2023-11-18T17:32:48;6.10;99.90
13744;DHT22;6943;52.368;9.966;2023-11-18T17:35:14;6.10;99.90
13744;DHT22;6943;52.368;9.966;2023-11-18T17:47:31;6.10;99.90
13744;DHT22;6943;52.368;9.966;2023-11-18T17:52:27;6.10;99.90
13744;DHT22;6943;52.368;9.966;2023-11-18T17:54:54;6.10;99.90
13744;DHT22;6943;52.368;9.966;2023-11-18T17:57:20;6.00;99.90
13744;DHT22;6943;52.368;9.966;2023-11-18T17:59:45;5.90;99.90
13744;DHT22;6943;52.368;9.966;2023-11-18T18:02:12;6.00;99.90
